sensor_id;sensor_type;location;lat;lon;timestamp;P1;durP1;ratioP1;P2;durP2;ratioP2
6537;SDS011;3302;52.508;13.454;2022-08-14T00:00:36;7.53;;;5.47;;
6537;SDS011;3302;52.508;13.454;2022-08-14T00:03:02;6.45;;;5.85;;
6537;SDS011;3302;52.508;13.454;2022-08-14T00:05:28;6.25;;;5.75;;
6537;SDS011;3302;52.508;13.454;2022-08-14T00:07:53;6.75;;;6.07;;
6537;SDS011;3302;52.508;13.454;2022-08-14T00:10:19;5.85;;;5.28;;
6537;SDS011;3302;52.508;13.454;2022-08-14T00:12:50;7.27;;;6.10;;
6537;SDS011;3302;52.508;13.454;2022-08-14T00:17:46;8.20;;;6.10;;
6537;SDS011;3302;52.508;13.454;2022-08-14T00:20:12;9.68;;;6.60;;
6537;SDS011;3302;52.508;13.454;2022-08-14T00:22:39;5.38;;;4.88;;
6537;SDS011;3302;52.508;13.454;2022-08-14T00:25:05;5.95;;;5.32;;
6537;SDS011;3302;52.508;13.454;2022-08-14T00:27:32;6.20;;;5.40;;
6537;SDS011;3302;52.508;13.454;2022-08-14T00:29:58;9.03;;;5.70;;
6537;SDS011;3302;52.508;13.454;2022-08-14T00:32:24;26.35;;;21.42;;
6537;SDS011;3302;52.508;13.454;2022-08-14T00:34:49;10.57;;;8.93;;
6537;SDS011;3302;52.508;13.454;2022-08-14T00:37:15;8.40;;;7.60;;
6537;SDS011;3302;52.508;13.454;2022-08-14T00:39:41;10.68;;;7.05;;
6537;SDS011;3302;52.508;13.454;2022-08-14T00:42:07;8.77;;;5.88;;
6537;SDS011;3302;52.508;13.454;2022-08-14T00:44:33;8.30;;;6.88;;
6537;SDS011;3302;52.508;13.454;2022-08-14T00:47:02;10.70;;;8.35;;
6537;SDS011;3302;52.508;13.454;2022-08-14T00:49:33;8.32;;;7.30;;
6537;SDS011;3302;52.508;13.454;2022-08-14T00:51:58;7.40;;;6.72;;
6537;SDS011;3302;52.508;13.454;2022-08-14T00:54:25;7.45;;;6.88;;
6537;SDS011;3302;52.508;13.454;2022-08-14T00:56:52;7.53;;;6.83;;
6537;SDS011;3302;52.508;13.454;2022-08-14T00:59:18;7.93;;;7.13;;
6537;SDS011;3302;52.508;13.454;2022-08-14T01:01:44;11.47;;;6.97;;
6537;SDS011;3302;52.508;13.454;2022-08-14T01:04:10;9.18;;;7.00;;
6537;SDS011;3302;52.508;13.454;2022-08-14T01:06:36;9.55;;;8.55;;
6537;SDS011;3302;52.508;13.454;2022-08-14T01:09:02;12.57;;;9.53;;
6537;SDS011;3302;52.508;13.454;2022-08-14T01:11:28;10.87;;;9.87;;
6537;SDS011;3302;52.508;13.454;2022-08-14T01:13:55;12.53;;;11.23;;
6537;SDS011;3302;52.508;13.454;2022-08-14T01:16:25;10.75;;;9.75;;
6537;SDS011;3302;52.508;13.454;2022-08-14T01:18:52;8.93;;;8.07;;
6537;SDS011;3302;52.508;13.454;2022-08-14T01:21:37;9.50;;;8.60;;
6537;SDS011;3302;52.508;13.454;2022-08-14T01:24:05;8.70;;;7.90;;
6537;SDS011;3302;52.508;13.454;2022-08-14T01:26:32;8.85;;;7.95;;
6537;SDS011;3302;52.508;13.454;2022-08-14T01:29:04;8.60;;;7.80;;
6537;SDS011;3302;52.508;13.454;2022-08-14T01:31:30;9.77;;;8.00;;
6537;SDS011;3302;52.508;13.454;2022-08-14T01:34:06;8.07;;;6.40;;
6537;SDS011;3302;52.508;13.454;2022-08-14T01:36:32;6.60;;;5.90;;
6537;SDS011;3302;52.508;13.454;2022-08-14T01:39:15;7.07;;;5.63;;
6537;SDS011;3302;52.508;13.454;2022-08-14T01:41:42;8.70;;;6.37;;
6537;SDS011;3302;52.508;13.454;2022-08-14T01:44:14;6.97;;;6.27;;
6537;SDS011;3302;52.508;13.454;2022-08-14T01:46:40;7.70;;;6.90;;
6537;SDS011;3302;52.508;13.454;2022-08-14T01:49:13;12.20;;;8.70;;
6537;SDS011;3302;52.508;13.454;2022-08-14T01:51:39;9.37;;;8.33;;
6537;SDS011;3302;52.508;13.454;2022-08-14T01:54:09;6.15;;;5.60;;
6537;SDS011;3302;52.508;13.454;2022-08-14T01:56:37;8.07;;;7.27;;
6537;SDS011;3302;52.508;13.454;2022-08-14T01:59:06;11.53;;;10.40;;
6537;SDS011;3302;52.508;13.454;2022-08-14T02:01:57;15.73;;;9.10;;
6537;SDS011;3302;52.508;13.454;2022-08-14T02:04:32;14.93;;;10.60;;
6537;SDS011;3302;52.508;13.454;2022-08-14T02:06:59;11.17;;;9.33;;
6537;SDS011;3302;52.508;13.454;2022-08-14T02:09:27;11.77;;;9.00;;
6537;SDS011;3302;52.508;13.454;2022-08-14T02:11:59;9.38;;;8.48;;
6537;SDS011;3302;52.508;13.454;2022-08-14T02:14:27;12.80;;;8.87;;
6537;SDS011;3302;52.508;13.454;2022-08-14T02:16:53;8.60;;;7.60;;
6537;SDS011;3302;52.508;13.454;2022-08-14T02:19:22;8.07;;;7.27;;
6537;SDS011;3302;52.508;13.454;2022-08-14T02:21:52;7.37;;;6.27;;
6537;SDS011;3302;52.508;13.454;2022-08-14T02:24:19;6.47;;;5.87;;
6537;SDS011;3302;52.508;13.454;2022-08-14T02:26:47;6.50;;;5.90;;
6537;SDS011;3302;52.508;13.454;2022-08-14T02:29:15;8.07;;;6.07;;
6537;SDS011;3302;52.508;13.454;2022-08-14T02:31:47;8.93;;;6.65;;
6537;SDS011;3302;52.508;13.454;2022-08-14T02:36:55;7.13;;;6.43;;
6537;SDS011;3302;52.508;13.454;2022-08-14T02:39:42;6.97;;;6.20;;
6537;SDS011;3302;52.508;13.454;2022-08-14T02:42:11;7.03;;;6.15;;
6537;SDS011;3302;52.508;13.454;2022-08-14T02:44:39;7.07;;;6.43;;
6537;SDS011;3302;52.508;13.454;2022-08-14T02:47:07;7.35;;;6.60;;
6537;SDS011;3302;52.508;13.454;2022-08-14T02:49:33;7.43;;;6.03;;
6537;SDS011;3302;52.508;13.454;2022-08-14T02:52:00;6.87;;;6.17;;
6537;SDS011;3302;52.508;13.454;2022-08-14T02:54:26;7.90;;;5.95;;
6537;SDS011;3302;52.508;13.454;2022-08-14T02:56:52;6.95;;;6.07;;
6537;SDS011;3302;52.508;13.454;2022-08-14T02:59:20;8.50;;;6.50;;
6537;SDS011;3302;52.508;13.454;2022-08-14T03:01:52;7.03;;;6.40;;
6537;SDS011;3302;52.508;13.454;2022-08-14T03:04:18;6.97;;;6.28;;
6537;SDS011;3302;52.508;13.454;2022-08-14T03:06:45;6.77;;;5.90;;
6537;SDS011;3302;52.508;13.454;2022-08-14T03:09:12;7.30;;;6.40;;
6537;SDS011;3302;52.508;13.454;2022-08-14T03:11:38;8.57;;;7.60;;
6537;SDS011;3302;52.508;13.454;2022-08-14T03:14:09;12.33;;;8.63;;
6537;SDS011;3302;52.508;13.454;2022-08-14T03:16:36;10.10;;;8.60;;
6537;SDS011;3302;52.508;13.454;2022-08-14T03:19:03;7.70;;;6.47;;
6537;SDS011;3302;52.508;13.454;2022-08-14T03:21:31;7.45;;;6.70;;
6537;SDS011;3302;52.508;13.454;2022-08-14T03:23:58;7.13;;;6.23;;
6537;SDS011;3302;52.508;13.454;2022-08-14T03:26:33;8.00;;;7.17;;
6537;SDS011;3302;52.508;13.454;2022-08-14T03:28:59;7.90;;;6.80;;
6537;SDS011;3302;52.508;13.454;2022-08-14T03:31:26;9.20;;;8.40;;
6537;SDS011;3302;52.508;13.454;2022-08-14T03:33:52;9.90;;;8.75;;
6537;SDS011;3302;52.508;13.454;2022-08-14T03:36:19;14.05;;;9.88;;
6537;SDS011;3302;52.508;13.454;2022-08-14T03:38:46;7.53;;;6.80;;
6537;SDS011;3302;52.508;13.454;2022-08-14T03:41:15;7.23;;;6.53;;
6537;SDS011;3302;52.508;13.454;2022-08-14T03:43:46;7.27;;;6.40;;
6537;SDS011;3302;52.508;13.454;2022-08-14T03:46:17;7.37;;;6.70;;
6537;SDS011;3302;52.508;13.454;2022-08-14T03:48:43;7.38;;;6.63;;
6537;SDS011;3302;52.508;13.454;2022-08-14T03:51:10;7.60;;;6.90;;
6537;SDS011;3302;52.508;13.454;2022-08-14T03:53:38;7.67;;;6.53;;
6537;SDS011;3302;52.508;13.454;2022-08-14T03:56:10;6.97;;;6.23;;
6537;SDS011;3302;52.508;13.454;2022-08-14T03:58:41;7.70;;;6.97;;
6537;SDS011;3302;52.508;13.454;2022-08-14T04:01:10;8.03;;;7.10;;
6537;SDS011;3302;52.508;13.454;2022-08-14T04:03:37;7.93;;;7.17;;
6537;SDS011;3302;52.508;13.454;2022-08-14T04:06:03;9.73;;;7.07;;
6537;SDS011;3302;52.508;13.454;2022-08-14T04:08:33;7.50;;;6.80;;
6537;SDS011;3302;52.508;13.454;2022-08-14T04:11:00;7.83;;;6.60;;
6537;SDS011;3302;52.508;13.454;2022-08-14T04:13:26;7.43;;;6.73;;
6537;SDS011;3302;52.508;13.454;2022-08-14T04:15:52;7.75;;;6.80;;
6537;SDS011;3302;52.508;13.454;2022-08-14T04:18:18;7.80;;;7.10;;
6537;SDS011;3302;52.508;13.454;2022-08-14T04:20:44;7.27;;;6.47;;
6537;SDS011;3302;52.508;13.454;2022-08-14T04:23:10;7.03;;;6.40;;
6537;SDS011;3302;52.508;13.454;2022-08-14T04:25:35;7.13;;;6.53;;
6537;SDS011;3302;52.508;13.454;2022-08-14T04:28:02;7.33;;;6.70;;
6537;SDS011;3302;52.508;13.454;2022-08-14T04:30:32;7.30;;;6.70;;
6537;SDS011;3302;52.508;13.454;2022-08-14T04:33:03;7.13;;;6.50;;
6537;SDS011;3302;52.508;13.454;2022-08-14T04:35:31;7.43;;;6.80;;
6537;SDS011;3302;52.508;13.454;2022-08-14T04:37:57;7.60;;;6.90;;
6537;SDS011;3302;52.508;13.454;2022-08-14T04:40:41;8.07;;;6.30;;
6537;SDS011;3302;52.508;13.454;2022-08-14T04:43:26;8.07;;;6.70;;
6537;SDS011;3302;52.508;13.454;2022-08-14T04:46:01;7.37;;;6.67;;
6537;SDS011;3302;52.508;13.454;2022-08-14T04:48:32;7.50;;;6.80;;
6537;SDS011;3302;52.508;13.454;2022-08-14T04:50:58;7.60;;;6.90;;
6537;SDS011;3302;52.508;13.454;2022-08-14T04:53:26;8.10;;;7.30;;
6537;SDS011;3302;52.508;13.454;2022-08-14T04:55:53;7.88;;;6.53;;
6537;SDS011;3302;52.508;13.454;2022-08-14T04:58:20;6.80;;;6.30;;
6537;SDS011;3302;52.508;13.454;2022-08-14T05:00:48;9.17;;;6.83;;
6537;SDS011;3302;52.508;13.454;2022-08-14T05:03:18;7.70;;;7.00;;
6537;SDS011;3302;52.508;13.454;2022-08-14T05:05:52;7.93;;;6.63;;
6537;SDS011;3302;52.508;13.454;2022-08-14T05:08:22;8.33;;;7.03;;
6537;SDS011;3302;52.508;13.454;2022-08-14T05:10:50;7.93;;;6.90;;
6537;SDS011;3302;52.508;13.454;2022-08-14T05:13:19;7.90;;;7.20;;
6537;SDS011;3302;52.508;13.454;2022-08-14T05:15:48;7.87;;;7.07;;
6537;SDS011;3302;52.508;13.454;2022-08-14T05:18:18;7.50;;;6.80;;
6537;SDS011;3302;52.508;13.454;2022-08-14T05:20:47;7.40;;;6.77;;
6537;SDS011;3302;52.508;13.454;2022-08-14T05:23:16;7.43;;;6.73;;
6537;SDS011;3302;52.508;13.454;2022-08-14T05:25:46;8.13;;;6.70;;
6537;SDS011;3302;52.508;13.454;2022-08-14T05:28:15;8.43;;;6.63;;
6537;SDS011;3302;52.508;13.454;2022-08-14T05:30:53;7.28;;;6.68;;
6537;SDS011;3302;52.508;13.454;2022-08-14T05:33:21;8.27;;;7.40;;
6537;SDS011;3302;52.508;13.454;2022-08-14T05:35:48;8.33;;;7.53;;
6537;SDS011;3302;52.508;13.454;2022-08-14T05:38:17;8.80;;;7.63;;
6537;SDS011;3302;52.508;13.454;2022-08-14T05:40:45;8.23;;;7.43;;
6537;SDS011;3302;52.508;13.454;2022-08-14T05:43:12;8.17;;;7.37;;
6537;SDS011;3302;52.508;13.454;2022-08-14T05:45:38;6.90;;;6.30;;
6537;SDS011;3302;52.508;13.454;2022-08-14T05:48:05;8.37;;;7.57;;
6537;SDS011;3302;52.508;13.454;2022-08-14T05:50:32;7.97;;;7.10;;
6537;SDS011;3302;52.508;13.454;2022-08-14T05:52:59;8.70;;;7.83;;
6537;SDS011;3302;52.508;13.454;2022-08-14T05:55:25;7.87;;;7.07;;
6537;SDS011;3302;52.508;13.454;2022-08-14T05:57:52;9.30;;;7.50;;
6537;SDS011;3302;52.508;13.454;2022-08-14T06:00:40;7.70;;;7.07;;
6537;SDS011;3302;52.508;13.454;2022-08-14T06:03:08;7.80;;;7.05;;
6537;SDS011;3302;52.508;13.454;2022-08-14T06:05:35;7.80;;;7.00;;
6537;SDS011;3302;52.508;13.454;2022-08-14T06:08:01;7.77;;;7.07;;
6537;SDS011;3302;52.508;13.454;2022-08-14T06:10:29;7.70;;;7.00;;
6537;SDS011;3302;52.508;13.454;2022-08-14T06:12:56;8.50;;;7.23;;
6537;SDS011;3302;52.508;13.454;2022-08-14T06:15:22;8.30;;;7.50;;
6537;SDS011;3302;52.508;13.454;2022-08-14T06:17:49;7.93;;;7.13;;
6537;SDS011;3302;52.508;13.454;2022-08-14T06:20:17;7.47;;;6.88;;
6537;SDS011;3302;52.508;13.454;2022-08-14T06:22:43;8.03;;;7.30;;
6537;SDS011;3302;52.508;13.454;2022-08-14T06:25:10;7.67;;;7.07;;
6537;SDS011;3302;52.508;13.454;2022-08-14T06:27:41;8.77;;;7.53;;
6537;SDS011;3302;52.508;13.454;2022-08-14T06:30:10;7.80;;;7.15;;
6537;SDS011;3302;52.508;13.454;2022-08-14T06:32:41;8.90;;;8.17;;
6537;SDS011;3302;52.508;13.454;2022-08-14T06:35:07;8.13;;;7.40;;
6537;SDS011;3302;52.508;13.454;2022-08-14T06:37:38;7.10;;;6.53;;
6537;SDS011;3302;52.508;13.454;2022-08-14T06:40:04;7.93;;;7.30;;
6537;SDS011;3302;52.508;13.454;2022-08-14T06:42:30;7.77;;;7.00;;
6537;SDS011;3302;52.508;13.454;2022-08-14T06:44:56;7.87;;;7.03;;
6537;SDS011;3302;52.508;13.454;2022-08-14T06:47:22;7.93;;;7.03;;
6537;SDS011;3302;52.508;13.454;2022-08-14T06:49:47;8.47;;;7.67;;
6537;SDS011;3302;52.508;13.454;2022-08-14T06:52:13;10.50;;;7.63;;
6537;SDS011;3302;52.508;13.454;2022-08-14T06:54:39;9.07;;;7.35;;
6537;SDS011;3302;52.508;13.454;2022-08-14T06:57:05;7.87;;;7.07;;
6537;SDS011;3302;52.508;13.454;2022-08-14T06:59:30;8.40;;;7.60;;
6537;SDS011;3302;52.508;13.454;2022-08-14T07:01:56;7.28;;;6.50;;
6537;SDS011;3302;52.508;13.454;2022-08-14T07:04:40;7.32;;;6.53;;
6537;SDS011;3302;52.508;13.454;2022-08-14T07:07:39;7.93;;;7.27;;
6537;SDS011;3302;52.508;13.454;2022-08-14T07:10:06;9.70;;;6.70;;
6537;SDS011;3302;52.508;13.454;2022-08-14T07:12:33;7.97;;;7.23;;
6537;SDS011;3302;52.508;13.454;2022-08-14T07:14:59;8.10;;;7.40;;
6537;SDS011;3302;52.508;13.454;2022-08-14T07:17:25;6.97;;;6.37;;
6537;SDS011;3302;52.508;13.454;2022-08-14T07:19:51;7.60;;;6.90;;
6537;SDS011;3302;52.508;13.454;2022-08-14T07:22:17;7.87;;;6.93;;
6537;SDS011;3302;52.508;13.454;2022-08-14T07:24:43;7.40;;;6.57;;
6537;SDS011;3302;52.508;13.454;2022-08-14T07:27:09;7.60;;;7.00;;
6537;SDS011;3302;52.508;13.454;2022-08-14T07:29:35;8.03;;;7.33;;
6537;SDS011;3302;52.508;13.454;2022-08-14T07:32:00;6.73;;;6.13;;
6537;SDS011;3302;52.508;13.454;2022-08-14T07:34:26;7.17;;;6.17;;
6537;SDS011;3302;52.508;13.454;2022-08-14T07:36:53;7.43;;;6.80;;
6537;SDS011;3302;52.508;13.454;2022-08-14T07:39:19;8.07;;;7.37;;
6537;SDS011;3302;52.508;13.454;2022-08-14T07:41:45;6.87;;;6.27;;
6537;SDS011;3302;52.508;13.454;2022-08-14T07:44:11;6.53;;;5.93;;
6537;SDS011;3302;52.508;13.454;2022-08-14T07:46:38;7.50;;;6.80;;
6537;SDS011;3302;52.508;13.454;2022-08-14T07:49:04;7.20;;;6.50;;
6537;SDS011;3302;52.508;13.454;2022-08-14T07:51:32;6.80;;;6.20;;
6537;SDS011;3302;52.508;13.454;2022-08-14T07:53:58;7.43;;;6.70;;
6537;SDS011;3302;52.508;13.454;2022-08-14T07:56:25;7.33;;;6.73;;
6537;SDS011;3302;52.508;13.454;2022-08-14T07:58:52;7.13;;;6.43;;
6537;SDS011;3302;52.508;13.454;2022-08-14T08:01:18;7.77;;;6.93;;
6537;SDS011;3302;52.508;13.454;2022-08-14T08:03:46;6.50;;;5.88;;
6537;SDS011;3302;52.508;13.454;2022-08-14T08:06:14;7.07;;;6.33;;
6537;SDS011;3302;52.508;13.454;2022-08-14T08:08:41;6.30;;;5.70;;
6537;SDS011;3302;52.508;13.454;2022-08-14T08:11:08;8.10;;;6.17;;
6537;SDS011;3302;52.508;13.454;2022-08-14T08:13:40;7.07;;;5.53;;
6537;SDS011;3302;52.508;13.454;2022-08-14T08:16:06;7.00;;;6.30;;
6537;SDS011;3302;52.508;13.454;2022-08-14T08:18:33;9.73;;;6.17;;
6537;SDS011;3302;52.508;13.454;2022-08-14T08:20:59;8.33;;;6.07;;
6537;SDS011;3302;52.508;13.454;2022-08-14T08:23:26;7.10;;;6.40;;
6537;SDS011;3302;52.508;13.454;2022-08-14T08:25:54;7.47;;;6.68;;
6537;SDS011;3302;52.508;13.454;2022-08-14T08:28:23;9.55;;;6.80;;
6537;SDS011;3302;52.508;13.454;2022-08-14T08:31:02;7.78;;;6.95;;
6537;SDS011;3302;52.508;13.454;2022-08-14T08:33:31;7.43;;;6.60;;
6537;SDS011;3302;52.508;13.454;2022-08-14T08:35:58;10.48;;;6.15;;
6537;SDS011;3302;52.508;13.454;2022-08-14T08:38:26;7.68;;;6.43;;
6537;SDS011;3302;52.508;13.454;2022-08-14T08:40:56;6.78;;;6.07;;
6537;SDS011;3302;52.508;13.454;2022-08-14T08:43:24;7.97;;;6.50;;
6537;SDS011;3302;52.508;13.454;2022-08-14T08:46:02;8.85;;;6.18;;
6537;SDS011;3302;52.508;13.454;2022-08-14T08:48:31;6.70;;;6.15;;
6537;SDS011;3302;52.508;13.454;2022-08-14T08:51:07;6.15;;;5.60;;
6537;SDS011;3302;52.508;13.454;2022-08-14T08:53:34;7.25;;;5.57;;
6537;SDS011;3302;52.508;13.454;2022-08-14T08:56:01;6.35;;;5.72;;
6537;SDS011;3302;52.508;13.454;2022-08-14T08:58:28;6.43;;;5.75;;
6537;SDS011;3302;52.508;13.454;2022-08-14T09:00:55;9.60;;;6.30;;
6537;SDS011;3302;52.508;13.454;2022-08-14T09:03:23;6.80;;;5.88;;
6537;SDS011;3302;52.508;13.454;2022-08-14T09:05:52;6.18;;;5.60;;
6537;SDS011;3302;52.508;13.454;2022-08-14T09:08:20;6.68;;;5.75;;
6537;SDS011;3302;52.508;13.454;2022-08-14T09:10:51;5.07;;;4.60;;
6537;SDS011;3302;52.508;13.454;2022-08-14T09:13:18;7.55;;;4.80;;
6537;SDS011;3302;52.508;13.454;2022-08-14T09:15:47;4.82;;;4.30;;
6537;SDS011;3302;52.508;13.454;2022-08-14T09:18:14;9.68;;;4.78;;
6537;SDS011;3302;52.508;13.454;2022-08-14T09:20:42;8.40;;;4.90;;
6537;SDS011;3302;52.508;13.454;2022-08-14T09:23:10;4.60;;;4.20;;
6537;SDS011;3302;52.508;13.454;2022-08-14T09:25:37;5.15;;;4.25;;
6537;SDS011;3302;52.508;13.454;2022-08-14T09:28:06;5.57;;;4.53;;
6537;SDS011;3302;52.508;13.454;2022-08-14T09:30:35;5.72;;;4.60;;
6537;SDS011;3302;52.508;13.454;2022-08-14T09:35:32;9.63;;;5.00;;
6537;SDS011;3302;52.508;13.454;2022-08-14T09:38:27;5.35;;;4.85;;
6537;SDS011;3302;52.508;13.454;2022-08-14T09:41:28;6.38;;;4.82;;
6537;SDS011;3302;52.508;13.454;2022-08-14T09:46:27;7.53;;;4.35;;
6537;SDS011;3302;52.508;13.454;2022-08-14T09:48:59;7.40;;;3.63;;
6537;SDS011;3302;52.508;13.454;2022-08-14T09:51:27;7.00;;;4.20;;
6537;SDS011;3302;52.508;13.454;2022-08-14T09:53:58;7.70;;;4.05;;
6537;SDS011;3302;52.508;13.454;2022-08-14T09:56:41;4.40;;;3.80;;
6537;SDS011;3302;52.508;13.454;2022-08-14T09:59:12;4.65;;;3.83;;
6537;SDS011;3302;52.508;13.454;2022-08-14T10:01:40;3.90;;;3.58;;
6537;SDS011;3302;52.508;13.454;2022-08-14T10:04:18;4.43;;;4.00;;
6537;SDS011;3302;52.508;13.454;2022-08-14T10:06:48;5.05;;;4.35;;
6537;SDS011;3302;52.508;13.454;2022-08-14T10:09:15;5.57;;;3.72;;
6537;SDS011;3302;52.508;13.454;2022-08-14T10:11:52;6.03;;;3.88;;
6537;SDS011;3302;52.508;13.454;2022-08-14T10:14:21;4.93;;;4.22;;
6537;SDS011;3302;52.508;13.454;2022-08-14T10:16:50;4.43;;;3.58;;
6537;SDS011;3302;52.508;13.454;2022-08-14T10:19:19;7.75;;;4.18;;
6537;SDS011;3302;52.508;13.454;2022-08-14T10:21:57;3.92;;;3.47;;
6537;SDS011;3302;52.508;13.454;2022-08-14T10:24:29;4.90;;;3.95;;
6537;SDS011;3302;52.508;13.454;2022-08-14T10:26:58;4.60;;;3.97;;
6537;SDS011;3302;52.508;13.454;2022-08-14T10:29:36;4.32;;;3.83;;
6537;SDS011;3302;52.508;13.454;2022-08-14T10:32:04;5.75;;;4.15;;
6537;SDS011;3302;52.508;13.454;2022-08-14T10:34:34;4.85;;;3.95;;
6537;SDS011;3302;52.508;13.454;2022-08-14T10:37:02;4.10;;;3.70;;
6537;SDS011;3302;52.508;13.454;2022-08-14T10:39:32;3.65;;;3.35;;
6537;SDS011;3302;52.508;13.454;2022-08-14T10:42:01;5.55;;;3.72;;
6537;SDS011;3302;52.508;13.454;2022-08-14T10:44:32;5.68;;;3.72;;
6537;SDS011;3302;52.508;13.454;2022-08-14T10:47:03;5.28;;;3.80;;
6537;SDS011;3302;52.508;13.454;2022-08-14T10:49:35;4.47;;;4.07;;
6537;SDS011;3302;52.508;13.454;2022-08-14T10:52:03;6.28;;;3.95;;
6537;SDS011;3302;52.508;13.454;2022-08-14T10:54:41;3.80;;;3.50;;
6537;SDS011;3302;52.508;13.454;2022-08-14T10:57:15;4.13;;;3.72;;
6537;SDS011;3302;52.508;13.454;2022-08-14T10:59:45;8.60;;;3.92;;
6537;SDS011;3302;52.508;13.454;2022-08-14T11:05:00;6.80;;;4.13;;
6537;SDS011;3302;52.508;13.454;2022-08-14T11:07:30;5.40;;;3.63;;
6537;SDS011;3302;52.508;13.454;2022-08-14T11:10:00;5.65;;;4.28;;
6537;SDS011;3302;52.508;13.454;2022-08-14T11:17:41;7.85;;;3.80;;
6537;SDS011;3302;52.508;13.454;2022-08-14T11:20:09;4.50;;;4.07;;
6537;SDS011;3302;52.508;13.454;2022-08-14T11:22:37;4.25;;;3.85;;
6537;SDS011;3302;52.508;13.454;2022-08-14T11:25:06;4.22;;;3.75;;
6537;SDS011;3302;52.508;13.454;2022-08-14T11:27:42;4.60;;;4.13;;
6537;SDS011;3302;52.508;13.454;2022-08-14T11:30:13;5.65;;;3.50;;
6537;SDS011;3302;52.508;13.454;2022-08-14T11:32:50;6.00;;;4.50;;
6537;SDS011;3302;52.508;13.454;2022-08-14T11:35:17;5.00;;;3.72;;
6537;SDS011;3302;52.508;13.454;2022-08-14T11:38:03;5.15;;;3.65;;
6537;SDS011;3302;52.508;13.454;2022-08-14T11:40:32;5.55;;;3.70;;
6537;SDS011;3302;52.508;13.454;2022-08-14T11:42:59;5.15;;;3.67;;
6537;SDS011;3302;52.508;13.454;2022-08-14T11:45:30;5.97;;;4.97;;
6537;SDS011;3302;52.508;13.454;2022-08-14T11:47:59;4.40;;;3.65;;
6537;SDS011;3302;52.508;13.454;2022-08-14T11:50:27;4.88;;;3.50;;
6537;SDS011;3302;52.508;13.454;2022-08-14T11:52:55;4.88;;;3.42;;
6537;SDS011;3302;52.508;13.454;2022-08-14T11:55:24;5.60;;;3.50;;
6537;SDS011;3302;52.508;13.454;2022-08-14T11:58:01;4.45;;;3.70;;
6537;SDS011;3302;52.508;13.454;2022-08-14T12:00:46;4.82;;;3.90;;
6537;SDS011;3302;52.508;13.454;2022-08-14T12:03:13;4.43;;;4.03;;
6537;SDS011;3302;52.508;13.454;2022-08-14T12:05:39;4.65;;;4.22;;
6537;SDS011;3302;52.508;13.454;2022-08-14T12:08:07;4.93;;;4.40;;
6537;SDS011;3302;52.508;13.454;2022-08-14T12:10:35;4.60;;;4.20;;
6537;SDS011;3302;52.508;13.454;2022-08-14T12:13:15;8.60;;;6.70;;
6537;SDS011;3302;52.508;13.454;2022-08-14T12:15:44;9.57;;;5.22;;
6537;SDS011;3302;52.508;13.454;2022-08-14T12:18:13;5.03;;;4.25;;
6537;SDS011;3302;52.508;13.454;2022-08-14T12:20:40;6.78;;;4.07;;
6537;SDS011;3302;52.508;13.454;2022-08-14T12:23:21;4.47;;;4.05;;
6537;SDS011;3302;52.508;13.454;2022-08-14T12:25:48;6.70;;;4.28;;
6537;SDS011;3302;52.508;13.454;2022-08-14T12:28:14;6.28;;;3.90;;
6537;SDS011;3302;52.508;13.454;2022-08-14T12:30:44;4.82;;;4.30;;
6537;SDS011;3302;52.508;13.454;2022-08-14T12:33:22;4.28;;;3.97;;
6537;SDS011;3302;52.508;13.454;2022-08-14T12:35:55;4.35;;;3.95;;
6537;SDS011;3302;52.508;13.454;2022-08-14T12:41:14;4.88;;;4.15;;
6537;SDS011;3302;52.508;13.454;2022-08-14T12:43:45;6.45;;;4.13;;
6537;SDS011;3302;52.508;13.454;2022-08-14T12:46:21;6.85;;;4.00;;
6537;SDS011;3302;52.508;13.454;2022-08-14T12:48:48;5.97;;;4.72;;
6537;SDS011;3302;52.508;13.454;2022-08-14T12:51:15;4.95;;;4.13;;
6537;SDS011;3302;52.508;13.454;2022-08-14T12:53:42;4.13;;;3.83;;
6537;SDS011;3302;52.508;13.454;2022-08-14T12:56:08;7.65;;;5.25;;
6537;SDS011;3302;52.508;13.454;2022-08-14T12:58:34;4.65;;;4.20;;
6537;SDS011;3302;52.508;13.454;2022-08-14T13:01:00;4.47;;;4.07;;
6537;SDS011;3302;52.508;13.454;2022-08-14T13:03:27;5.97;;;3.85;;
6537;SDS011;3302;52.508;13.454;2022-08-14T13:05:53;4.32;;;3.83;;
6537;SDS011;3302;52.508;13.454;2022-08-14T13:08:20;4.75;;;3.75;;
6537;SDS011;3302;52.508;13.454;2022-08-14T13:10:47;4.57;;;3.65;;
6537;SDS011;3302;52.508;13.454;2022-08-14T13:13:16;5.45;;;3.90;;
6537;SDS011;3302;52.508;13.454;2022-08-14T13:15:44;8.38;;;4.28;;
6537;SDS011;3302;52.508;13.454;2022-08-14T13:18:13;6.78;;;4.00;;
6537;SDS011;3302;52.508;13.454;2022-08-14T13:20:41;4.40;;;4.00;;
6537;SDS011;3302;52.508;13.454;2022-08-14T13:23:08;4.22;;;3.90;;
6537;SDS011;3302;52.508;13.454;2022-08-14T13:25:34;4.90;;;4.13;;
6537;SDS011;3302;52.508;13.454;2022-08-14T13:28:05;4.30;;;3.90;;
6537;SDS011;3302;52.508;13.454;2022-08-14T13:30:32;4.75;;;3.92;;
6537;SDS011;3302;52.508;13.454;2022-08-14T13:32:59;4.75;;;3.97;;
6537;SDS011;3302;52.508;13.454;2022-08-14T13:35:28;4.00;;;3.60;;
6537;SDS011;3302;52.508;13.454;2022-08-14T13:37:54;5.22;;;3.65;;
6537;SDS011;3302;52.508;13.454;2022-08-14T13:40:20;5.20;;;4.00;;
6537;SDS011;3302;52.508;13.454;2022-08-14T13:42:48;5.47;;;3.80;;
6537;SDS011;3302;52.508;13.454;2022-08-14T13:45:16;3.83;;;3.28;;
6537;SDS011;3302;52.508;13.454;2022-08-14T13:47:44;4.28;;;3.88;;
6537;SDS011;3302;52.508;13.454;2022-08-14T13:50:11;4.18;;;3.78;;
6537;SDS011;3302;52.508;13.454;2022-08-14T13:52:41;6.90;;;3.55;;
6537;SDS011;3302;52.508;13.454;2022-08-14T13:55:09;4.03;;;3.72;;
6537;SDS011;3302;52.508;13.454;2022-08-14T13:57:40;3.83;;;3.47;;
6537;SDS011;3302;52.508;13.454;2022-08-14T14:00:08;4.03;;;3.72;;
6537;SDS011;3302;52.508;13.454;2022-08-14T14:02:37;3.65;;;3.35;;
6537;SDS011;3302;52.508;13.454;2022-08-14T14:05:05;4.38;;;3.97;;
6537;SDS011;3302;52.508;13.454;2022-08-14T14:07:32;6.45;;;4.18;;
6537;SDS011;3302;52.508;13.454;2022-08-14T14:10:00;5.45;;;3.60;;
6537;SDS011;3302;52.508;13.454;2022-08-14T14:12:28;6.18;;;3.78;;
6537;SDS011;3302;52.508;13.454;2022-08-14T14:14:54;4.00;;;3.60;;
6537;SDS011;3302;52.508;13.454;2022-08-14T14:17:20;4.07;;;3.67;;
6537;SDS011;3302;52.508;13.454;2022-08-14T14:19:49;4.55;;;4.15;;
6537;SDS011;3302;52.508;13.454;2022-08-14T14:22:16;5.80;;;5.30;;
6537;SDS011;3302;52.508;13.454;2022-08-14T14:24:43;3.50;;;3.20;;
6537;SDS011;3302;52.508;13.454;2022-08-14T14:27:11;6.25;;;3.55;;
6537;SDS011;3302;52.508;13.454;2022-08-14T14:29:43;5.63;;;4.10;;
6537;SDS011;3302;52.508;13.454;2022-08-14T14:32:12;4.78;;;3.53;;
6537;SDS011;3302;52.508;13.454;2022-08-14T14:34:40;4.32;;;3.00;;
6537;SDS011;3302;52.508;13.454;2022-08-14T14:37:06;3.63;;;3.20;;
6537;SDS011;3302;52.508;13.454;2022-08-14T14:39:37;6.88;;;3.70;;
6537;SDS011;3302;52.508;13.454;2022-08-14T14:42:04;4.43;;;3.92;;
6537;SDS011;3302;52.508;13.454;2022-08-14T14:44:34;4.85;;;3.38;;
6537;SDS011;3302;52.508;13.454;2022-08-14T14:47:11;3.85;;;3.30;;
6537;SDS011;3302;52.508;13.454;2022-08-14T14:49:38;5.22;;;3.38;;
6537;SDS011;3302;52.508;13.454;2022-08-14T14:52:05;4.03;;;3.58;;
6537;SDS011;3302;52.508;13.454;2022-08-14T14:54:32;4.57;;;3.80;;
6537;SDS011;3302;52.508;13.454;2022-08-14T14:57:00;4.15;;;3.38;;
6537;SDS011;3302;52.508;13.454;2022-08-14T14:59:28;4.07;;;3.67;;
6537;SDS011;3302;52.508;13.454;2022-08-14T15:01:59;6.05;;;3.53;;
6537;SDS011;3302;52.508;13.454;2022-08-14T15:04:33;3.80;;;3.50;;
6537;SDS011;3302;52.508;13.454;2022-08-14T15:07:00;5.82;;;4.13;;
6537;SDS011;3302;52.508;13.454;2022-08-14T15:09:27;7.22;;;3.50;;
6537;SDS011;3302;52.508;13.454;2022-08-14T15:11:53;3.55;;;3.25;;
6537;SDS011;3302;52.508;13.454;2022-08-14T15:14:19;3.50;;;3.20;;
6537;SDS011;3302;52.508;13.454;2022-08-14T15:16:45;3.38;;;3.10;;
6537;SDS011;3302;52.508;13.454;2022-08-14T15:19:11;5.50;;;3.30;;
6537;SDS011;3302;52.508;13.454;2022-08-14T15:21:37;3.30;;;3.00;;
6537;SDS011;3302;52.508;13.454;2022-08-14T15:24:03;4.78;;;3.35;;
6537;SDS011;3302;52.508;13.454;2022-08-14T15:26:29;4.10;;;3.80;;
6537;SDS011;3302;52.508;13.454;2022-08-14T15:28:54;3.45;;;3.10;;
6537;SDS011;3302;52.508;13.454;2022-08-14T15:31:20;3.58;;;2.97;;